Time;durP1;ratioP1;P1;durP2;ratioP2;P2;SDS_P1;SDS_P2;PMS_P1;PMS_P2;Temp;Humidity;BMP_temperature;BMP_pressure;BME280_temperature;BME280_humidity;BME280_pressure;Samples;Min_cycle;Max_cycle;Signal;HPM_P1;HPM_P2
2022/06/01 00:00:29;;;;;;;3.53;3.23;;;;;;;;;;5034061;28;20608;-77
2022/06/01 00:02:57;;;;;;;4.20;3.27;;;;;;;;;;5010355;28;20230;-77
2022/06/01 00:05:26;;;;;;;3.20;3.00;;;;;;;;;;5015952;28;20272;-75
2022/06/01 00:07:53;;;;;;;3.63;3.30;;;;;;;;;;5031603;28;20324;-76
2022/06/01 00:10:21;;;;;;;3.87;3.57;;;;;;;;;;5006875;28;20333;-77
2022/06/01 00:12:48;;;;;;;3.47;3.27;;;;;;;;;;5005964;28;22219;-77
2022/06/01 00:15:17;;;;;;;3.57;3.27;;;;;;;;;;5019714;28;20233;-75
2022/06/01 00:17:44;;;;;;;4.37;3.57;;;;;;;;;;5015220;28;21112;-76
2022/06/01 00:20:13;;;;;;;3.90;3.60;;;;;;;;;;5011701;28;20279;-75
2022/06/01 00:22:40;;;;;;;3.90;3.50;;;;;;;;;;5030080;28;20230;-76
2022/06/01 00:25:08;;;;;;;4.23;3.10;;;;;;;;;;5032145;28;20238;-76
2022/06/01 00:27:37;;;;;;;4.37;2.90;;;;;;;;;;5008741;28;20600;-75
2022/06/01 00:30:05;;;;;;;4.23;3.73;;;;;;;;;;5011878;28;20206;-73
2022/06/01 00:32:32;;;;;;;3.70;3.40;;;;;;;;;;5008789;28;20206;-76
2022/06/01 00:35:00;;;;;;;3.70;3.40;;;;;;;;;;5004030;28;20250;-76
2022/06/01 00:37:27;;;;;;;4.90;3.47;;;;;;;;;;5009814;28;20499;-75
2022/06/01 00:39:55;;;;;;;3.97;3.67;;;;;;;;;;5007016;28;20910;-76
2022/06/01 00:42:26;;;;;;;4.20;3.60;;;;;;;;;;5013286;28;20254;-77
2022/06/01 00:44:53;;;;;;;4.23;3.60;;;;;;;;;;5020715;28;21030;-76
2022/06/01 00:47:21;;;;;;;3.80;3.50;;;;;;;;;;5013126;28;20515;-75
2022/06/01 00:50:00;;;;;;;4.40;3.20;;;;;;;;;;5015840;28;20208;-77
2022/06/01 00:52:38;;;;;;;5.50;3.80;;;;;;;;;;5011409;28;20211;-76
2022/06/01 00:55:07;;;;;;;4.50;3.30;;;;;;;;;;5007205;28;20242;-76
2022/06/01 00:57:35;;;;;;;3.70;3.50;;;;;;;;;;5012075;28;20202;-76
2022/06/01 01:00:06;;;;;;;4.07;3.77;;;;;;;;;;5015171;28;20217;-76
2022/06/01 01:02:33;;;;;;;3.60;3.30;;;;;;;;;;5013199;28;20223;-75
2022/06/01 01:05:02;;;;;;;4.50;3.20;;;;;;;;;;5013409;28;20221;-76
2022/06/01 01:07:30;;;;;;;3.60;3.30;;;;;;;;;;5012592;28;20311;-77
2022/06/01 01:09:57;;;;;;;3.80;3.40;;;;;;;;;;5015545;28;20208;-74
2022/06/01 01:12:24;;;;;;;3.73;3.43;;;;;;;;;;5017328;28;20202;-75
2022/06/01 01:14:52;;;;;;;3.57;3.20;;;;;;;;;;5018954;28;20599;-75
2022/06/01 01:17:21;;;;;;;3.90;3.53;;;;;;;;;;5022126;28;20206;-76
2022/06/01 01:19:52;;;;;;;5.90;3.30;;;;;;;;;;5030374;28;20674;-76
2022/06/01 01:22:22;;;;;;;3.73;3.43;;;;;;;;;;5034957;28;20241;-75
2022/06/01 01:24:59;;;;;;;4.03;3.60;;;;;;;;;;5025382;28;20337;-76
2022/06/01 01:27:26;;;;;;;3.47;3.17;;;;;;;;;;5033828;28;20325;-77
2022/06/01 01:29:54;;;;;;;3.63;3.33;;;;;;;;;;5023532;28;20685;-77
2022/06/01 01:32:21;;;;;;;3.93;3.60;;;;;;;;;;5025207;28;20205;-77
2022/06/01 01:34:49;;;;;;;3.90;3.50;;;;;;;;;;5030873;28;20246;-77
2022/06/01 01:37:18;;;;;;;4.20;3.50;;;;;;;;;;5028131;28;20207;-76
2022/06/01 01:39:45;;;;;;;6.07;3.60;;;;;;;;;;5027187;28;20207;-75
2022/06/01 01:42:13;;;;;;;3.23;3.00;;;;;;;;;;5035611;28;20324;-77
2022/06/01 01:44:44;;;;;;;4.20;3.50;;;;;;;;;;5032006;28;20257;-76
2022/06/01 01:47:12;;;;;;;3.90;3.27;;;;;;;;;;5036572;28;20293;-76
2022/06/01 01:49:40;;;;;;;3.63;3.33;;;;;;;;;;5034169;28;20210;-75
2022/06/01 01:52:12;;;;;;;3.80;3.40;;;;;;;;;;5038674;28;20249;-75
2022/06/01 01:54:46;;;;;;;4.90;3.43;;;;;;;;;;5036994;28;20230;-76
2022/06/01 01:57:30;;;;;;;3.50;3.20;;;;;;;;;;5032568;28;20336;-77
2022/06/01 02:00:18;;;;;;;3.70;3.40;;;;;;;;;;5037257;28;20244;-77
2022/06/01 02:02:57;;;;;;;4.30;3.43;;;;;;;;;;5016720;28;20239;-77
2022/06/01 02:08:25;;;;;;;4.60;3.60;;;;;;;;;;5017018;28;20207;-77
2022/06/01 02:13:41;;;;;;;3.90;3.47;;;;;;;;;;5018746;28;20228;-76
2022/06/01 02:16:09;;;;;;;4.63;3.40;;;;;;;;;;5024739;28;20590;-75
2022/06/01 02:18:39;;;;;;;3.47;3.20;;;;;;;;;;5011458;28;20210;-77
2022/06/01 02:21:09;;;;;;;3.80;3.00;;;;;;;;;;5013182;28;20232;-76
2022/06/01 02:23:39;;;;;;;3.40;3.20;;;;;;;;;;5014779;28;20236;-76
2022/06/01 02:26:06;;;;;;;3.67;3.37;;;;;;;;;;5020478;28;20315;-74
2022/06/01 02:28:34;;;;;;;3.53;3.23;;;;;;;;;;5012094;28;20206;-77
2022/06/01 02:31:01;;;;;;;4.03;3.63;;;;;;;;;;5011915;28;21803;-76
2022/06/01 02:33:32;;;;;;;3.20;3.00;;;;;;;;;;5023987;28;20210;-74
2022/06/01 02:36:01;;;;;;;4.40;3.37;;;;;;;;;;5009767;28;20313;-77
2022/06/01 02:38:35;;;;;;;3.50;3.20;;;;;;;;;;5016478;28;20353;-76
2022/06/01 02:41:03;;;;;;;4.20;3.50;;;;;;;;;;5018889;28;20229;-74
2022/06/01 02:43:30;;;;;;;3.47;3.20;;;;;;;;;;5012003;28;20713;-76
2022/06/01 02:45:57;;;;;;;4.90;3.70;;;;;;;;;;5028963;28;20265;-76
2022/06/01 02:48:25;;;;;;;6.97;3.50;;;;;;;;;;5036261;28;20282;-76
2022/06/01 02:50:52;;;;;;;4.93;3.57;;;;;;;;;;5033898;28;20285;-77
2022/06/01 02:53:20;;;;;;;5.27;3.33;;;;;;;;;;5021935;28;20221;-77
2022/06/01 02:55:47;;;;;;;4.50;3.50;;;;;;;;;;5019742;28;20729;-74
2022/06/01 02:58:14;;;;;;;4.00;3.60;;;;;;;;;;5025209;28;20216;-77
2022/06/01 03:00:42;;;;;;;4.10;3.80;;;;;;;;;;5020432;28;20686;-76
2022/06/01 03:03:10;;;;;;;3.90;3.53;;;;;;;;;;5020406;28;20222;-73
2022/06/01 03:05:38;;;;;;;4.60;3.67;;;;;;;;;;5024032;28;20687;-77
2022/06/01 03:08:05;;;;;;;4.27;3.73;;;;;;;;;;5021247;28;20325;-77
2022/06/01 03:10:33;;;;;;;4.73;3.70;;;;;;;;;;5025136;28;20293;-75
2022/06/01 03:13:00;;;;;;;4.50;4.10;;;;;;;;;;5026986;28;20272;-76
2022/06/01 03:15:28;;;;;;;4.57;3.90;;;;;;;;;;5030306;28;20315;-75
2022/06/01 03:17:55;;;;;;;4.10;3.80;;;;;;;;;;5015168;28;20241;-76
2022/06/01 03:20:24;;;;;;;4.63;4.10;;;;;;;;;;5019690;28;20221;-75
2022/06/01 03:22:57;;;;;;;4.70;4.00;;;;;;;;;;5012235;28;20225;-77
2022/06/01 03:25:24;;;;;;;4.33;3.93;;;;;;;;;;5015897;28;20359;-75
2022/06/01 03:27:53;;;;;;;4.03;3.20;;;;;;;;;;5023615;28;21944;-77
2022/06/01 03:30:21;;;;;;;5.20;4.00;;;;;;;;;;5012031;28;20386;-74
2022/06/01 03:32:49;;;;;;;3.80;3.50;;;;;;;;;;5030685;28;20686;-76
2022/06/01 03:35:17;;;;;;;7.77;3.50;;;;;;;;;;5034878;28;20269;-76
2022/06/01 03:37:45;;;;;;;3.53;3.23;;;;;;;;;;5028182;28;20330;-77
2022/06/01 03:40:14;;;;;;;4.03;3.60;;;;;;;;;;5031447;28;20294;-75
2022/06/01 03:42:42;;;;;;;3.33;3.03;;;;;;;;;;5034210;28;20226;-75
2022/06/01 03:47:56;;;;;;;4.00;3.70;;;;;;;;;;5035208;28;20297;-76
2022/06/01 03:50:24;;;;;;;3.67;3.37;;;;;;;;;;5037748;28;21464;-76
2022/06/01 03:52:52;;;;;;;3.70;3.40;;;;;;;;;;5035651;28;20596;-76
2022/06/01 03:55:20;;;;;;;3.93;3.53;;;;;;;;;;5033460;28;20238;-74
2022/06/01 03:57:48;;;;;;;4.23;3.70;;;;;;;;;;5040491;28;20214;-75
2022/06/01 04:00:17;;;;;;;4.03;3.63;;;;;;;;;;5032691;28;20256;-78
2022/06/01 04:02:44;;;;;;;3.67;3.37;;;;;;;;;;5033831;28;20809;-76
2022/06/01 04:05:12;;;;;;;4.03;3.70;;;;;;;;;;5032131;28;20313;-78
2022/06/01 04:07:39;;;;;;;4.53;4.10;;;;;;;;;;5033396;28;21371;-76
2022/06/01 04:10:08;;;;;;;4.23;3.50;;;;;;;;;;5034793;28;20202;-76
2022/06/01 04:12:36;;;;;;;4.47;3.40;;;;;;;;;;5029287;28;20210;-76
2022/06/01 04:15:03;;;;;;;3.93;3.53;;;;;;;;;;5035669;28;20328;-76
2022/06/01 04:17:30;;;;;;;3.63;3.33;;;;;;;;;;5035810;28;20301;-75
2022/06/01 04:19:57;;;;;;;6.80;3.80;;;;;;;;;;5034184;28;20241;-76
2022/06/01 04:22:25;;;;;;;4.53;4.13;;;;;;;;;;5028898;28;20228;-73
2022/06/01 04:24:52;;;;;;;4.37;3.50;;;;;;;;;;5026570;28;20299;-77
2022/06/01 04:27:19;;;;;;;3.77;3.47;;;;;;;;;;5027803;28;20275;-77
2022/06/01 04:29:47;;;;;;;6.20;3.70;;;;;;;;;;5034407;28;20289;-76
2022/06/01 04:32:16;;;;;;;4.27;3.87;;;;;;;;;;5028037;28;20337;-76
2022/06/01 04:34:43;;;;;;;4.33;3.93;;;;;;;;;;5026070;28;20705;-77
2022/06/01 04:37:10;;;;;;;4.60;4.20;;;;;;;;;;5029085;28;20214;-77
2022/06/01 04:39:38;;;;;;;4.93;4.07;;;;;;;;;;5026764;28;20234;-76
2022/06/01 04:42:06;;;;;;;4.60;4.20;;;;;;;;;;5030083;28;20309;-77
2022/06/01 04:44:34;;;;;;;5.90;4.20;;;;;;;;;;5027033;28;20213;-76
2022/06/01 04:47:01;;;;;;;5.23;4.07;;;;;;;;;;5030445;28;20218;-74
2022/06/01 04:49:28;;;;;;;4.70;3.70;;;;;;;;;;5029799;28;20299;-77
2022/06/01 04:51:56;;;;;;;4.30;4.00;;;;;;;;;;5034633;28;20257;-78
2022/06/01 04:54:23;;;;;;;3.97;3.57;;;;;;;;;;5034673;28;20297;-78
2022/06/01 04:56:50;;;;;;;5.17;3.97;;;;;;;;;;5028734;28;20202;-77
2022/06/01 04:59:18;;;;;;;4.00;3.70;;;;;;;;;;5020368;28;20337;-77
2022/06/01 05:01:46;;;;;;;4.57;4.10;;;;;;;;;;5011769;28;20328;-76
2022/06/01 05:04:14;;;;;;;4.20;3.90;;;;;;;;;;5014202;28;20221;-75
2022/06/01 05:06:41;;;;;;;4.00;3.70;;;;;;;;;;5019089;28;20241;-76
2022/06/01 05:09:09;;;;;;;3.93;3.63;;;;;;;;;;5028911;28;20230;-76
2022/06/01 05:11:37;;;;;;;5.17;4.17;;;;;;;;;;5025397;28;20202;-75
2022/06/01 05:14:04;;;;;;;4.50;4.10;;;;;;;;;;5025021;28;20292;-76
2022/06/01 05:16:32;;;;;;;4.80;4.10;;;;;;;;;;5020797;28;20324;-76
2022/06/01 05:18:59;;;;;;;4.13;3.83;;;;;;;;;;5022345;28;20207;-76
2022/06/01 05:21:27;;;;;;;4.90;4.40;;;;;;;;;;5024133;28;20336;-77
2022/06/01 05:23:54;;;;;;;5.40;4.03;;;;;;;;;;5016514;28;20317;-76
2022/06/01 05:26:21;;;;;;;7.83;4.80;;;;;;;;;;5018316;28;20237;-76
2022/06/01 05:28:49;;;;;;;4.20;3.80;;;;;;;;;;5021988;28;20202;-75
2022/06/01 05:31:16;;;;;;;3.90;3.60;;;;;;;;;;5017353;28;20289;-78
2022/06/01 05:33:44;;;;;;;3.60;3.30;;;;;;;;;;5022271;28;20206;-77
2022/06/01 05:36:12;;;;;;;4.05;3.30;;;;;;;;;;5021996;28;20932;-76
2022/06/01 05:38:40;;;;;;;4.78;3.72;;;;;;;;;;5019363;28;20210;-77
2022/06/01 05:41:07;;;;;;;3.10;2.80;;;;;;;;;;5023169;28;21328;-75
2022/06/01 05:43:35;;;;;;;3.08;2.78;;;;;;;;;;5022403;28;20357;-76
2022/06/01 05:46:03;;;;;;;2.47;2.25;;;;;;;;;;5028400;28;20313;-76
2022/06/01 05:48:31;;;;;;;3.00;2.55;;;;;;;;;;5015690;28;21491;-79
2022/06/01 05:50:58;;;;;;;2.63;2.30;;;;;;;;;;5018688;28;20198;-77
2022/06/01 05:53:26;;;;;;;2.53;2.30;;;;;;;;;;5024532;28;21871;-79
2022/06/01 05:55:53;;;;;;;2.33;2.10;;;;;;;;;;5019959;28;20239;-77
2022/06/01 05:58:22;;;;;;;2.08;1.88;;;;;;;;;;5022532;28;20333;-75
2022/06/01 06:00:50;;;;;;;2.05;1.80;;;;;;;;;;5018792;28;20234;-75
2022/06/01 06:03:18;;;;;;;4.10;1.92;;;;;;;;;;5026505;28;20218;-77
2022/06/01 06:06:15;;;;;;;3.22;2.28;;;;;;;;;;5017748;28;20225;-77
2022/06/01 06:08:42;;;;;;;2.53;2.30;;;;;;;;;;5022544;28;20260;-75
2022/06/01 06:11:16;;;;;;;3.85;2.20;;;;;;;;;;5017895;28;20199;-75
2022/06/01 06:13:44;;;;;;;2.83;2.60;;;;;;;;;;5019031;28;20659;-78
2022/06/01 06:16:13;;;;;;;3.47;2.30;;;;;;;;;;5015171;28;20360;-78
2022/06/01 06:18:40;;;;;;;2.60;2.40;;;;;;;;;;5020474;28;21609;-76
2022/06/01 06:21:07;;;;;;;2.70;2.50;;;;;;;;;;5021279;28;20199;-75
2022/06/01 06:23:35;;;;;;;4.38;3.05;;;;;;;;;;5020009;28;20340;-80
2022/06/01 06:26:03;;;;;;;2.72;2.53;;;;;;;;;;5020056;28;20317;-77
2022/06/01 06:28:31;;;;;;;4.13;2.75;;;;;;;;;;5023832;28;20292;-78
2022/06/01 06:30:59;;;;;;;3.20;2.90;;;;;;;;;;5042998;28;20595;-77
2022/06/01 06:33:26;;;;;;;4.15;3.17;;;;;;;;;;5023091;28;20300;-77
2022/06/01 06:36:00;;;;;;;3.00;2.80;;;;;;;;;;5014400;28;21942;-77
2022/06/01 06:38:29;;;;;;;3.83;3.53;;;;;;;;;;5021418;28;20285;-77
2022/06/01 06:40:58;;;;;;;5.20;3.20;;;;;;;;;;5027031;28;20210;-77
2022/06/01 06:43:26;;;;;;;3.30;3.10;;;;;;;;;;5029368;28;20321;-77
2022/06/01 06:45:58;;;;;;;3.88;3.47;;;;;;;;;;5021847;28;20218;-77
2022/06/01 06:48:25;;;;;;;3.88;3.13;;;;;;;;;;5021114;28;20285;-77
2022/06/01 06:50:53;;;;;;;3.50;3.20;;;;;;;;;;5027625;28;20682;-78
2022/06/01 06:53:21;;;;;;;3.33;3.13;;;;;;;;;;5029923;28;20239;-78
2022/06/01 06:55:49;;;;;;;4.40;3.27;;;;;;;;;;5027155;28;20802;-78
2022/06/01 06:58:16;;;;;;;3.80;3.50;;;;;;;;;;5024122;28;20216;-79
2022/06/01 07:00:44;;;;;;;3.67;3.38;;;;;;;;;;5019805;28;20233;-77
2022/06/01 07:03:12;;;;;;;4.00;3.50;;;;;;;;;;5018311;28;20356;-75
2022/06/01 07:08:27;;;;;;;5.10;3.17;;;;;;;;;;5022326;28;20232;-76
2022/06/01 07:10:55;;;;;;;4.03;3.00;;;;;;;;;;5019671;28;20285;-79
2022/06/01 07:13:22;;;;;;;4.90;3.50;;;;;;;;;;5028938;28;20312;-76
2022/06/01 07:16:00;;;;;;;3.50;3.20;;;;;;;;;;5018040;28;20224;-78
2022/06/01 07:18:27;;;;;;;3.80;3.50;;;;;;;;;;5020763;28;20275;-78
2022/06/01 07:20:54;;;;;;;3.05;2.85;;;;;;;;;;5017794;28;20293;-77
2022/06/01 07:23:22;;;;;;;3.13;2.83;;;;;;;;;;5026298;28;20226;-77
2022/06/01 07:25:49;;;;;;;3.13;2.60;;;;;;;;;;5024315;28;20365;-77
2022/06/01 07:28:16;;;;;;;4.57;3.03;;;;;;;;;;5013977;28;20292;-76
2022/06/01 07:30:43;;;;;;;2.60;2.40;;;;;;;;;;5024078;28;20233;-79
2022/06/01 07:33:11;;;;;;;2.60;2.40;;;;;;;;;;5024724;28;20746;-76
2022/06/01 07:35:41;;;;;;;3.72;2.75;;;;;;;;;;5031399;28;20364;-76
2022/06/01 07:43:40;;;;;;;2.30;2.10;;;;;;;;;;5014759;28;20914;-78
2022/06/01 07:46:08;;;;;;;2.00;1.80;;;;;;;;;;5011016;28;20229;-75
2022/06/01 07:48:36;;;;;;;3.22;1.98;;;;;;;;;;5006030;28;20300;-77
2022/06/01 07:51:23;;;;;;;3.05;1.80;;;;;;;;;;5016903;28;20213;-77
2022/06/01 07:53:51;;;;;;;2.15;1.95;;;;;;;;;;5020055;28;20301;-77
2022/06/01 07:56:18;;;;;;;3.28;2.00;;;;;;;;;;5012359;28;20313;-77
2022/06/01 07:58:45;;;;;;;2.38;2.03;;;;;;;;;;5023903;28;20208;-77
2022/06/01 08:01:12;;;;;;;2.78;2.05;;;;;;;;;;5025958;28;20201;-79
2022/06/01 08:03:40;;;;;;;2.67;2.17;;;;;;;;;;5026236;28;20661;-77
2022/06/01 08:06:08;;;;;;;2.00;1.80;;;;;;;;;;5028048;28;20284;-75
2022/06/01 08:08:35;;;;;;;2.85;2.50;;;;;;;;;;5015927;28;20195;-78
2022/06/01 08:11:02;;;;;;;3.28;2.40;;;;;;;;;;5024801;28;20740;-78
2022/06/01 08:13:30;;;;;;;2.60;2.40;;;;;;;;;;5013157;28;20795;-76
2022/06/01 08:15:58;;;;;;;2.70;2.50;;;;;;;;;;5023990;28;20673;-79
2022/06/01 08:18:26;;;;;;;2.03;1.90;;;;;;;;;;5032796;28;20320;-79
2022/06/01 08:20:53;;;;;;;3.60;2.50;;;;;;;;;;5020158;28;20313;-77
2022/06/01 08:23:22;;;;;;;2.33;2.13;;;;;;;;;;5029036;28;21593;-78
2022/06/01 08:25:50;;;;;;;2.47;2.28;;;;;;;;;;5024188;28;20365;-77
2022/06/01 08:28:18;;;;;;;2.53;2.22;;;;;;;;;;5015082;28;20206;-77
2022/06/01 08:30:45;;;;;;;2.28;1.73;;;;;;;;;;5011728;28;20229;-76
2022/06/01 08:33:13;;;;;;;2.72;1.83;;;;;;;;;;5006268;28;20340;-79
2022/06/01 08:35:42;;;;;;;5.07;1.98;;;;;;;;;;5013938;28;21704;-78
2022/06/01 08:38:09;;;;;;;2.75;1.98;;;;;;;;;;5003654;28;20308;-77
2022/06/01 08:40:44;;;;;;;1.83;1.70;;;;;;;;;;5005464;28;20224;-79
2022/06/01 08:43:13;;;;;;;1.83;1.70;;;;;;;;;;5012718;28;20212;-76
2022/06/01 08:45:42;;;;;;;2.95;1.90;;;;;;;;;;5022555;28;20228;-77
2022/06/01 08:48:14;;;;;;;2.45;1.70;;;;;;;;;;5013734;28;20284;-77
2022/06/01 08:50:41;;;;;;;3.22;1.90;;;;;;;;;;5016641;28;20205;-76
2022/06/01 08:53:09;;;;;;;1.63;1.52;;;;;;;;;;5018711;28;21160;-76
2022/06/01 08:55:49;;;;;;;2.08;1.40;;;;;;;;;;5020263;28;20245;-76
2022/06/01 08:58:19;;;;;;;2.03;1.58;;;;;;;;;;5026758;28;20209;-77
2022/06/01 09:01:12;;;;;;;1.20;1.20;;;;;;;;;;5015960;28;20237;-77
2022/06/01 09:03:43;;;;;;;1.38;1.13;;;;;;;;;;4992425;28;20246;-77
2022/06/01 09:06:26;;;;;;;1.40;1.30;;;;;;;;;;5000017;28;21700;-74
2022/06/01 09:09:06;;;;;;;1.30;1.20;;;;;;;;;;5003311;28;20237;-77
2022/06/01 09:11:37;;;;;;;3.78;1.23;;;;;;;;;;5012425;28;20206;-77
2022/06/01 09:14:06;;;;;;;1.23;1.23;;;;;;;;;;5013442;28;20241;-77
2022/06/01 09:16:43;;;;;;;1.95;1.15;;;;;;;;;;5024725;28;20231;-75
2022/06/01 09:19:16;;;;;;;1.67;1.50;;;;;;;;;;5025940;28;20210;-76
2022/06/01 09:24:38;;;;;;;2.58;1.40;;;;;;;;;;5021438;28;20233;-76
2022/06/01 09:27:10;;;;;;;2.08;1.35;;;;;;;;;;5014926;28;20199;-76
2022/06/01 09:29:47;;;;;;;1.40;1.30;;;;;;;;;;5003087;28;21265;-78
2022/06/01 09:32:36;;;;;;;1.60;1.27;;;;;;;;;;5013017;28;20209;-77
2022/06/01 09:35:06;;;;;;;2.67;1.40;;;;;;;;;;5010473;28;20364;-76
2022/06/01 09:37:40;;;;;;;2.15;1.45;;;;;;;;;;5011027;28;20276;-78
2022/06/01 09:40:31;;;;;;;2.30;1.38;;;;;;;;;;5023824;28;20296;-78
2022/06/01 09:43:00;;;;;;;1.83;1.50;;;;;;;;;;5025733;28;20214;-77
2022/06/01 09:45:29;;;;;;;1.40;1.33;;;;;;;;;;5023812;28;20916;-78
2022/06/01 09:48:27;;;;;;;1.58;1.48;;;;;;;;;;5028359;28;20229;-76
2022/06/01 09:51:17;;;;;;;2.38;1.50;;;;;;;;;;5009791;28;20202;-76
2022/06/01 09:53:47;;;;;;;1.65;1.40;;;;;;;;;;5020688;28;20218;-78
2022/06/01 09:56:40;;;;;;;1.45;1.40;;;;;;;;;;5023824;28;21601;-78
2022/06/01 10:07:30;;;;;;;1.70;1.60;;;;;;;;;;5022737;28;20295;-78
2022/06/01 10:09:59;;;;;;;3.83;1.55;;;;;;;;;;5023828;28;20202;-78
2022/06/01 10:12:36;;;;;;;1.65;1.20;;;;;;;;;;5022229;28;20284;-75
2022/06/01 10:15:05;;;;;;;2.25;1.50;;;;;;;;;;5024932;28;21569;-78
2022/06/01 10:17:34;;;;;;;3.15;1.40;;;;;;;;;;5025656;28;20324;-77
2022/06/01 10:20:10;;;;;;;1.20;1.20;;;;;;;;;;5021585;28;20751;-76
2022/06/01 10:22:38;;;;;;;2.22;1.30;;;;;;;;;;5023440;28;20288;-76
2022/06/01 10:25:25;;;;;;;3.28;1.60;;;;;;;;;;5021564;28;20560;-76
2022/06/01 10:27:57;;;;;;;2.65;1.50;;;;;;;;;;5026822;28;20203;-79
2022/06/01 10:30:26;;;;;;;3.55;1.48;;;;;;;;;;5027893;28;20304;-77
2022/06/01 10:32:59;;;;;;;2.30;1.50;;;;;;;;;;5021554;28;20653;-79
2022/06/01 10:35:41;;;;;;;1.40;1.30;;;;;;;;;;5009838;28;20271;-75
2022/06/01 10:38:17;;;;;;;1.88;1.77;;;;;;;;;;5016320;28;20297;-79
2022/06/01 10:40:58;;;;;;;3.25;2.80;;;;;;;;;;5015628;28;20214;-77
2022/06/01 10:43:28;;;;;;;1.25;1.25;;;;;;;;;;5016595;28;20761;-79
2022/06/01 10:46:00;;;;;;;4.70;3.67;;;;;;;;;;5015738;28;21313;-75
2022/06/01 10:48:35;;;;;;;6.30;4.15;;;;;;;;;;5005048;28;20285;-75
2022/06/01 10:51:10;;;;;;;5.88;3.28;;;;;;;;;;5019691;28;20411;-75
2022/06/01 10:53:59;;;;;;;6.20;4.40;;;;;;;;;;5017604;28;20345;-74
2022/06/01 10:56:27;;;;;;;2.58;1.73;;;;;;;;;;5022472;28;20237;-77
2022/06/01 10:58:59;;;;;;;2.15;1.40;;;;;;;;;;5003628;28;20283;-74
2022/06/01 11:01:33;;;;;;;1.92;1.30;;;;;;;;;;5000476;28;20211;-76
2022/06/01 11:04:03;;;;;;;1.75;1.30;;;;;;;;;;5012731;28;20238;-76
2022/06/01 11:07:02;;;;;;;1.40;1.23;;;;;;;;;;5019214;28;20288;-75
2022/06/01 11:09:29;;;;;;;1.40;1.30;;;;;;;;;;4926992;28;20296;-79
2022/06/01 11:11:56;;;;;;;1.52;1.33;;;;;;;;;;5012094;28;20227;-76
2022/06/01 11:14:35;;;;;;;2.03;1.25;;;;;;;;;;5025780;28;20476;-76
2022/06/01 11:17:24;;;;;;;1.88;1.77;;;;;;;;;;5025937;28;20202;-75
2022/06/01 11:19:51;;;;;;;1.52;1.42;;;;;;;;;;5023970;28;20232;-76
2022/06/01 11:22:37;;;;;;;1.90;1.20;;;;;;;;;;5025794;28;20238;-77
2022/06/01 11:25:08;;;;;;;1.65;1.40;;;;;;;;;;5012033;28;20313;-76
2022/06/01 11:27:54;;;;;;;1.50;1.40;;;;;;;;;;5028430;28;20203;-77
2022/06/01 11:30:22;;;;;;;1.58;1.40;;;;;;;;;;5035202;28;20211;-77
2022/06/01 11:32:55;;;;;;;1.50;1.25;;;;;;;;;;5035501;28;20199;-76
2022/06/01 11:35:23;;;;;;;1.30;1.20;;;;;;;;;;5025161;28;20316;-76
2022/06/01 11:38:07;;;;;;;1.40;1.27;;;;;;;;;;5036794;28;20210;-76
2022/06/01 11:40:56;;;;;;;1.83;1.38;;;;;;;;;;5032257;28;21142;-77
2022/06/01 11:43:32;;;;;;;3.60;1.38;;;;;;;;;;5027820;28;20369;-75
2022/06/01 11:46:19;;;;;;;1.92;1.30;;;;;;;;;;5024109;28;20259;-77
2022/06/01 11:48:49;;;;;;;1.40;1.25;;;;;;;;;;5013591;28;20211;-81
2022/06/01 11:51:21;;;;;;;1.30;1.20;;;;;;;;;;5031737;28;20215;-78
2022/06/01 11:54:08;;;;;;;1.33;1.15;;;;;;;;;;5026834;28;20206;-76
2022/06/01 11:56:35;;;;;;;2.10;1.15;;;;;;;;;;5031139;28;20310;-77
2022/06/01 11:59:02;;;;;;;1.10;1.10;;;;;;;;;;5027318;28;20719;-76
2022/06/01 12:01:36;;;;;;;3.17;1.20;;;;;;;;;;5032602;28;20300;-78
2022/06/01 12:04:03;;;;;;;1.38;1.20;;;;;;;;;;5028727;28;20293;-77
2022/06/01 12:07:05;;;;;;;2.30;1.25;;;;;;;;;;5034473;28;20222;-78
2022/06/01 12:09:50;;;;;;;2.20;1.30;;;;;;;;;;4991499;28;20719;-77
2022/06/01 12:12:33;;;;;;;1.77;1.45;;;;;;;;;;5030719;28;20211;-76
2022/06/01 12:15:03;;;;;;;1.88;1.50;;;;;;;;;;5028438;28;20230;-77
2022/06/01 12:17:32;;;;;;;1.92;1.25;;;;;;;;;;5027622;28;20238;-76
2022/06/01 12:20:12;;;;;;;1.60;1.50;;;;;;;;;;5046250;28;20206;-78
2022/06/01 12:28:47;;;;;;;2.20;1.40;;;;;;;;;;5028526;28;20211;-77
2022/06/01 12:31:29;;;;;;;2.40;1.30;;;;;;;;;;5034903;28;20206;-77
2022/06/01 12:34:16;;;;;;;1.30;1.20;;;;;;;;;;5033461;28;21474;-74
2022/06/01 12:36:43;;;;;;;1.52;1.40;;;;;;;;;;5047837;28;20230;-78
2022/06/01 12:39:16;;;;;;;1.40;1.30;;;;;;;;;;5018070;28;20297;-76
2022/06/01 12:41:45;;;;;;;1.85;1.25;;;;;;;;;;5023116;28;20229;-76
2022/06/01 12:44:12;;;;;;;1.10;1.10;;;;;;;;;;5024065;28;20277;-77
2022/06/01 12:46:47;;;;;;;1.92;1.30;;;;;;;;;;5024708;28;20246;-76
2022/06/01 12:49:36;;;;;;;1.70;1.40;;;;;;;;;;5029215;28;20245;-77
2022/06/01 12:52:08;;;;;;;1.90;1.50;;;;;;;;;;5030322;28;20302;-77
2022/06/01 12:54:36;;;;;;;1.55;1.40;;;;;;;;;;5021310;28;20217;-75
2022/06/01 12:57:04;;;;;;;1.45;1.25;;;;;;;;;;5028956;28;20356;-77
2022/06/01 12:59:33;;;;;;;1.58;1.48;;;;;;;;;;5030580;28;20584;-76
2022/06/01 13:02:02;;;;;;;3.53;1.60;;;;;;;;;;5032247;28;20304;-75
2022/06/01 13:04:35;;;;;;;1.30;1.20;;;;;;;;;;5028231;28;20240;-76
2022/06/01 13:07:02;;;;;;;2.38;1.27;;;;;;;;;;5030340;28;20210;-76
2022/06/01 13:09:31;;;;;;;1.50;1.25;;;;;;;;;;5028991;28;20199;-77
2022/06/01 13:12:04;;;;;;;2.97;1.52;;;;;;;;;;5027414;28;20209;-76
2022/06/01 13:14:32;;;;;;;1.58;1.20;;;;;;;;;;5031704;28;20305;-76
2022/06/01 13:17:01;;;;;;;1.33;1.23;;;;;;;;;;5029799;28;20210;-79
2022/06/01 13:19:30;;;;;;;1.95;1.10;;;;;;;;;;5032764;28;20847;-76
2022/06/01 13:22:01;;;;;;;1.33;1.23;;;;;;;;;;5037667;28;20309;-76
2022/06/01 13:24:29;;;;;;;1.80;1.30;;;;;;;;;;5027137;28;20332;-75
2022/06/01 13:27:01;;;;;;;1.92;1.40;;;;;;;;;;5029485;28;20301;-76
2022/06/01 13:29:32;;;;;;;3.28;1.45;;;;;;;;;;5023536;28;20194;-77
2022/06/01 13:32:06;;;;;;;2.47;1.50;;;;;;;;;;5013549;28;20210;-76
2022/06/01 13:34:39;;;;;;;3.58;1.30;;;;;;;;;;5021746;28;20194;-78
2022/06/01 13:37:11;;;;;;;1.75;1.33;;;;;;;;;;5029861;28;20240;-78
2022/06/01 13:39:42;;;;;;;1.52;1.35;;;;;;;;;;5029460;28;20206;-77
2022/06/01 13:42:21;;;;;;;5.40;1.27;;;;;;;;;;5019024;28;20206;-79
2022/06/01 13:44:51;;;;;;;2.03;1.40;;;;;;;;;;5026595;28;20321;-76
2022/06/01 13:47:30;;;;;;;1.20;1.10;;;;;;;;;;5021378;28;20202;-75
2022/06/01 13:50:08;;;;;;;2.85;1.30;;;;;;;;;;5027457;28;20288;-78
2022/06/01 13:52:38;;;;;;;2.53;1.40;;;;;;;;;;5033316;28;20371;-76
2022/06/01 13:55:13;;;;;;;1.25;1.15;;;;;;;;;;5029056;28;20350;-76
2022/06/01 13:58:13;;;;;;;1.40;1.30;;;;;;;;;;5031921;28;20565;-78
2022/06/01 14:00:45;;;;;;;1.85;1.42;;;;;;;;;;5005144;28;20341;-76
2022/06/01 14:03:22;;;;;;;1.10;1.10;;;;;;;;;;5028730;28;20474;-76
2022/06/01 14:05:56;;;;;;;1.20;1.10;;;;;;;;;;5023215;28;20344;-76
2022/06/01 14:08:29;;;;;;;2.47;1.33;;;;;;;;;;5022628;28;20287;-76
2022/06/01 14:10:57;;;;;;;1.80;1.17;;;;;;;;;;5026961;28;20251;-76
2022/06/01 14:13:28;;;;;;;1.38;1.27;;;;;;;;;;5028721;28;20261;-76
2022/06/01 14:15:55;;;;;;;2.05;1.33;;;;;;;;;;5028189;28;20253;-78
2022/06/01 14:18:30;;;;;;;1.40;1.02;;;;;;;;;;5026700;28;20678;-78
2022/06/01 14:20:58;;;;;;;1.75;1.10;;;;;;;;;;5026063;28;20304;-77
2022/06/01 14:23:25;;;;;;;1.30;1.02;;;;;;;;;;5026319;28;20301;-78
2022/06/01 14:28:39;;;;;;;1.80;1.20;;;;;;;;;;5028132;28;20302;-75
2022/06/01 14:31:08;;;;;;;1.88;1.00;;;;;;;;;;5019352;28;21347;-76
2022/06/01 14:33:36;;;;;;;1.80;1.10;;;;;;;;;;5015791;28;20202;-77
2022/06/01 14:36:04;;;;;;;1.77;1.02;;;;;;;;;;5017949;28;20239;-75
2022/06/01 14:38:32;;;;;;;1.00;1.00;;;;;;;;;;5017773;28;20267;-76
2022/06/01 14:41:04;;;;;;;1.33;1.20;;;;;;;;;;5023525;28;20206;-77
2022/06/01 14:43:36;;;;;;;1.23;1.15;;;;;;;;;;5026108;28;20210;-79
2022/06/01 14:46:07;;;;;;;2.03;1.40;;;;;;;;;;5027524;28;20233;-76
2022/06/01 14:48:35;;;;;;;1.23;1.13;;;;;;;;;;5017338;28;20293;-76
2022/06/01 14:51:05;;;;;;;1.48;1.10;;;;;;;;;;5027691;28;20229;-78
2022/06/01 14:53:37;;;;;;;2.45;1.10;;;;;;;;;;5027615;28;20293;-77
2022/06/01 14:56:06;;;;;;;1.00;1.00;;;;;;;;;;5025516;28;20279;-79
2022/06/01 14:58:33;;;;;;;1.30;1.20;;;;;;;;;;5025049;28;20316;-77
2022/06/01 15:01:12;;;;;;;1.58;1.20;;;;;;;;;;5019147;28;20833;-76
2022/06/01 15:03:44;;;;;;;1.42;1.33;;;;;;;;;;5023746;28;20447;-76
2022/06/01 15:06:11;;;;;;;1.13;1.13;;;;;;;;;;5025042;28;20308;-77
2022/06/01 15:08:39;;;;;;;1.40;1.30;;;;;;;;;;5029341;28;20202;-78
2022/06/01 15:11:06;;;;;;;1.35;1.25;;;;;;;;;;5026878;28;20211;-79
2022/06/01 15:13:34;;;;;;;2.25;1.13;;;;;;;;;;5029938;28;20303;-78
2022/06/01 15:16:02;;;;;;;1.67;1.13;;;;;;;;;;5025639;28;21149;-76
2022/06/01 15:18:29;;;;;;;1.20;1.10;;;;;;;;;;5020012;28;20210;-77
2022/06/01 15:20:56;;;;;;;1.00;1.00;;;;;;;;;;5015718;28;20301;-78
2022/06/01 15:23:23;;;;;;;1.08;0.98;;;;;;;;;;5026276;28;20283;-76
2022/06/01 15:25:51;;;;;;;1.63;1.10;;;;;;;;;;5027656;28;20248;-77
2022/06/01 15:28:18;;;;;;;1.38;1.10;;;;;;;;;;5050335;28;20213;-75
2022/06/01 15:41:50;;;;;;;1.13;1.02;;;;;;;;;;5034393;28;20255;-75
2022/06/01 15:44:17;;;;;;;1.42;1.17;;;;;;;;;;5023998;28;20212;-75
2022/06/01 15:46:45;;;;;;;1.15;1.02;;;;;;;;;;5022029;28;20287;-75
2022/06/01 15:49:13;;;;;;;1.40;1.30;;;;;;;;;;5018367;28;20209;-77
2022/06/01 15:51:41;;;;;;;3.13;0.93;;;;;;;;;;5032518;28;20244;-75